createdAt,value
2024-05-09T00:19:22.268Z,13.9
2024-05-09T00:39:21.782Z,13.8
2024-05-09T00:59:21.662Z,13.7
2024-05-09T01:19:21.512Z,13.6
2024-05-09T01:39:21.107Z,13.5
2024-05-09T01:59:20.865Z,13.4
2024-05-09T02:19:20.649Z,13.3
2024-05-09T02:39:20.171Z,13.2
2024-05-09T02:59:19.935Z,13.1
2024-05-09T03:19:19.894Z,13
2024-05-09T03:39:19.376Z,12.9
2024-05-09T03:59:19.199Z,12.8
2024-05-09T04:19:19.734Z,12.8
2024-05-09T04:39:18.564Z,12.8
2024-05-09T04:59:18.329Z,12.8
2024-05-09T05:19:18.133Z,12.8
2024-05-09T05:39:17.760Z,12.9
2024-05-09T05:59:17.520Z,13
2024-05-09T06:19:17.388Z,13.1
2024-05-09T06:39:16.943Z,13.2
2024-05-09T06:59:16.732Z,13.3
2024-05-09T07:19:16.582Z,13.4
2024-05-09T07:59:15.892Z,13.7
2024-05-09T08:19:15.692Z,13.8
2024-05-09T08:39:22.463Z,14
2024-05-09T08:59:26.565Z,14.2
2024-05-09T09:19:14.885Z,14.5
2024-05-09T09:39:14.490Z,14.8
2024-05-09T09:59:14.209Z,15.1
2024-05-09T10:19:14.063Z,15.4
2024-05-09T10:39:13.657Z,15.7
2024-05-09T10:59:13.395Z,16
2024-05-09T11:19:13.325Z,16.3
2024-05-09T11:39:12.893Z,16.5
2024-05-09T11:59:12.583Z,16.7
2024-05-09T12:19:12.298Z,16.8
2024-05-09T12:39:12.002Z,17
2024-05-09T12:59:11.720Z,17.2
2024-05-09T13:19:11.491Z,17.3
2024-05-09T13:39:17.612Z,17.4
2024-05-09T13:59:10.901Z,17.5
2024-05-09T14:39:10.361Z,17.7
2024-05-09T14:59:10.053Z,17.8
2024-05-09T15:19:10.060Z,17.9
2024-05-09T15:39:09.632Z,17.9
2024-05-09T15:59:09.239Z,17.9
2024-05-09T16:19:09.000Z,17.8
2024-05-09T16:39:08.778Z,17.7
2024-05-09T16:59:08.462Z,17.5
2024-05-09T17:39:07.974Z,17.3
2024-05-09T17:59:10.801Z,17.2
2024-05-09T18:19:07.573Z,17.1
2024-05-09T18:39:07.051Z,16.9
2024-05-09T18:59:06.764Z,16.8
2024-05-09T19:19:11.325Z,16.7
2024-05-09T19:39:06.259Z,16.5
2024-05-09T19:59:05.934Z,16.3
2024-05-09T20:19:05.792Z,16.1
2024-05-09T20:39:05.390Z,16
2024-05-09T20:59:05.242Z,15.8
2024-05-09T21:19:04.890Z,15.6
2024-05-09T21:39:04.705Z,15.5
2024-05-09T21:59:04.306Z,15.3
2024-05-09T22:39:15.873Z,15.1
2024-05-09T22:59:03.493Z,14.9
2024-05-09T23:39:03.010Z,14.7
2024-05-09T23:59:02.702Z,14.6
